Time;durP1;ratioP1;P1;durP2;ratioP2;P2;SDS_P1;SDS_P2;PMS_P1;PMS_P2;Temp;Humidity;BMP_temperature;BMP_pressure;BME280_temperature;BME280_humidity;BME280_pressure;Samples;Min_cycle;Max_cycle;Signal;HPM_P1;HPM_P2
2021/03/18 00:00:55;;;;;;;31.48;12.50;;;;;;;;;;4992038;28;20077;-75
2021/03/18 00:03:24;;;;;;;26.45;11.68;;;;;;;;;;4992974;28;20054;-75
2021/03/18 00:05:52;;;;;;;26.17;11.93;;;;;;;;;;4991605;28;20494;-75
2021/03/18 00:08:19;;;;;;;29.08;12.57;;;;;;;;;;4991132;28;20093;-76
2021/03/18 00:10:46;;;;;;;31.60;12.85;;;;;;;;;;4990576;28;20450;-76
2021/03/18 00:13:12;;;;;;;30.90;13.23;;;;;;;;;;4989341;28;20054;-76
2021/03/18 00:15:40;;;;;;;31.67;12.63;;;;;;;;;;4989502;28;20052;-76
2021/03/18 00:18:07;;;;;;;27.80;11.77;;;;;;;;;;4989078;28;20054;-76
2021/03/18 00:20:35;;;;;;;26.42;12.35;;;;;;;;;;4988794;28;20054;-75
2021/03/18 00:23:01;;;;;;;29.00;12.73;;;;;;;;;;4990447;28;20077;-75
2021/03/18 00:25:28;;;;;;;26.65;12.05;;;;;;;;;;4990480;28;20085;-75
2021/03/18 00:27:55;;;;;;;28.77;12.90;;;;;;;;;;4991545;28;20089;-75
2021/03/18 00:30:22;;;;;;;26.35;12.02;;;;;;;;;;4990110;28;20127;-75
2021/03/18 00:32:50;;;;;;;25.75;12.65;;;;;;;;;;4990389;28;20074;-76
2021/03/18 00:35:17;;;;;;;30.33;13.10;;;;;;;;;;4990094;28;20061;-75
2021/03/18 00:37:45;;;;;;;29.38;13.68;;;;;;;;;;4990468;28;20197;-76
2021/03/18 00:40:32;;;;;;;29.38;11.80;;;;;;;;;;4988748;28;20491;-75
2021/03/18 00:42:58;;;;;;;29.75;13.13;;;;;;;;;;4989830;28;20086;-75
2021/03/18 00:45:26;;;;;;;28.80;13.45;;;;;;;;;;4990338;28;20068;-75
2021/03/18 00:47:53;;;;;;;31.20;13.32;;;;;;;;;;4989949;28;20081;-75
2021/03/18 00:50:25;;;;;;;30.50;12.70;;;;;;;;;;4989652;28;20046;-75
2021/03/18 00:52:51;;;;;;;27.58;12.57;;;;;;;;;;4989803;28;20490;-76
2021/03/18 00:55:18;;;;;;;27.27;12.73;;;;;;;;;;4987336;28;20112;-76
2021/03/18 00:57:45;;;;;;;28.50;13.05;;;;;;;;;;4987111;28;20120;-75
2021/03/18 01:00:15;;;;;;;29.48;12.10;;;;;;;;;;4987076;28;20089;-76
2021/03/18 01:02:42;;;;;;;29.35;12.30;;;;;;;;;;4989522;28;20058;-76
2021/03/18 01:05:11;;;;;;;31.50;12.10;;;;;;;;;;4990151;28;20464;-76
2021/03/18 01:07:39;;;;;;;40.17;13.95;;;;;;;;;;4988042;28;20460;-76
2021/03/18 01:10:08;;;;;;;28.77;12.90;;;;;;;;;;4989491;28;20050;-76
2021/03/18 01:12:35;;;;;;;29.38;13.02;;;;;;;;;;4988199;28;20054;-76
2021/03/18 01:15:03;;;;;;;35.53;13.50;;;;;;;;;;4989086;28;20149;-75
2021/03/18 01:17:30;;;;;;;28.65;12.88;;;;;;;;;;4988977;28;20088;-76
2021/03/18 01:19:58;;;;;;;29.10;13.38;;;;;;;;;;4989176;28;20137;-75
2021/03/18 01:22:25;;;;;;;35.33;14.65;;;;;;;;;;4988021;28;20054;-75
2021/03/18 01:24:54;;;;;;;34.10;14.23;;;;;;;;;;4988334;28;20185;-76
2021/03/18 01:27:21;;;;;;;27.10;12.57;;;;;;;;;;4987644;28;20066;-76
2021/03/18 01:29:47;;;;;;;28.48;13.73;;;;;;;;;;4986700;28;20561;-75
2021/03/18 01:32:24;;;;;;;33.08;12.13;;;;;;;;;;4988191;28;20152;-76
2021/03/18 01:34:51;;;;;;;38.95;13.13;;;;;;;;;;4986491;28;20105;-75
2021/03/18 01:37:18;;;;;;;29.75;12.85;;;;;;;;;;4987397;28;20077;-76
2021/03/18 01:39:44;;;;;;;38.17;12.77;;;;;;;;;;4987871;28;20129;-75
2021/03/18 01:42:11;;;;;;;31.40;14.02;;;;;;;;;;4988014;28;20136;-75
2021/03/18 01:44:38;;;;;;;35.63;14.57;;;;;;;;;;4988167;28;20129;-76
2021/03/18 01:47:05;;;;;;;41.03;14.90;;;;;;;;;;4988833;28;20049;-76
2021/03/18 01:49:32;;;;;;;37.75;14.95;;;;;;;;;;4988894;28;20097;-76
2021/03/18 01:51:59;;;;;;;35.35;14.38;;;;;;;;;;4988744;28;20108;-75
2021/03/18 01:54:26;;;;;;;29.25;12.90;;;;;;;;;;4987527;28;20125;-76
2021/03/18 01:56:52;;;;;;;40.13;15.07;;;;;;;;;;4988685;28;20114;-76
2021/03/18 01:59:19;;;;;;;41.80;15.27;;;;;;;;;;4987306;28;20072;-75
2021/03/18 02:01:45;;;;;;;37.95;15.75;;;;;;;;;;4987172;28;20846;-76
2021/03/18 02:04:12;;;;;;;43.50;16.23;;;;;;;;;;4988367;28;20045;-76
2021/03/18 02:06:39;;;;;;;40.30;14.98;;;;;;;;;;4987158;28;20078;-76
2021/03/18 02:09:06;;;;;;;45.67;16.38;;;;;;;;;;4987943;28;20109;-76
2021/03/18 02:11:32;;;;;;;40.22;16.25;;;;;;;;;;4986898;28;20650;-76
2021/03/18 02:13:59;;;;;;;49.33;17.25;;;;;;;;;;4988227;28;20132;-76
2021/03/18 02:16:28;;;;;;;54.17;18.92;;;;;;;;;;4987139;28;20054;-76
2021/03/18 02:19:23;;;;;;;42.33;17.10;;;;;;;;;;4990794;28;20101;-75
2021/03/18 02:21:52;;;;;;;44.10;16.75;;;;;;;;;;4991446;28;20132;-75
2021/03/18 02:24:22;;;;;;;43.00;17.73;;;;;;;;;;4990289;28;20077;-76
2021/03/18 02:26:59;;;;;;;41.95;15.70;;;;;;;;;;4990556;28;20113;-75
2021/03/18 02:29:35;;;;;;;43.97;15.18;;;;;;;;;;4991700;28;20052;-76
2021/03/18 02:32:23;;;;;;;39.92;14.73;;;;;;;;;;4991689;28;20053;-76
2021/03/18 02:35:09;;;;;;;49.45;15.63;;;;;;;;;;4991202;28;20059;-76
2021/03/18 02:37:38;;;;;;;38.08;14.60;;;;;;;;;;4992177;28;20141;-76
2021/03/18 02:40:25;;;;;;;42.88;15.30;;;;;;;;;;4991871;28;20054;-76
2021/03/18 02:42:59;;;;;;;41.92;14.35;;;;;;;;;;4991867;28;20055;-76
2021/03/18 02:45:29;;;;;;;45.60;16.20;;;;;;;;;;4992389;28;20050;-76
2021/03/18 02:47:57;;;;;;;44.80;15.55;;;;;;;;;;4991856;28;20073;-75
2021/03/18 02:50:24;;;;;;;46.03;17.17;;;;;;;;;;4989984;28;20042;-75
2021/03/18 02:52:52;;;;;;;43.75;16.45;;;;;;;;;;4991539;28;20129;-76
2021/03/18 02:55:19;;;;;;;44.45;15.85;;;;;;;;;;4991284;28;20197;-75
2021/03/18 02:57:46;;;;;;;48.90;17.17;;;;;;;;;;4991796;28;20073;-75
2021/03/18 03:00:14;;;;;;;46.58;15.32;;;;;;;;;;4991165;28;20139;-75
2021/03/18 03:02:41;;;;;;;38.10;14.55;;;;;;;;;;4991552;28;20078;-75
2021/03/18 03:05:09;;;;;;;44.75;16.70;;;;;;;;;;4991099;28;20050;-75
2021/03/18 03:07:36;;;;;;;48.92;16.95;;;;;;;;;;4991384;28;20050;-75
2021/03/18 03:10:05;;;;;;;53.58;17.42;;;;;;;;;;4991336;28;20459;-75
2021/03/18 03:12:33;;;;;;;58.15;19.60;;;;;;;;;;4991470;28;20082;-75
2021/03/18 03:15:00;;;;;;;65.03;21.25;;;;;;;;;;4990888;28;20490;-75
2021/03/18 03:17:28;;;;;;;54.28;19.98;;;;;;;;;;4989052;28;20042;-75
2021/03/18 03:19:56;;;;;;;60.92;21.05;;;;;;;;;;4989674;28;20428;-75
2021/03/18 03:22:23;;;;;;;58.30;20.33;;;;;;;;;;4990008;28;20086;-75
2021/03/18 03:24:51;;;;;;;66.03;21.48;;;;;;;;;;4989981;28;20128;-75
2021/03/18 03:27:18;;;;;;;52.28;20.00;;;;;;;;;;4988919;28;20547;-75
2021/03/18 03:29:45;;;;;;;63.78;21.85;;;;;;;;;;4988934;28;20133;-76
2021/03/18 03:32:12;;;;;;;48.75;20.00;;;;;;;;;;4989045;28;20085;-76
2021/03/18 03:34:40;;;;;;;81.28;26.70;;;;;;;;;;4990027;28;20049;-76
2021/03/18 03:37:08;;;;;;;60.10;20.85;;;;;;;;;;4990903;28;20149;-76
2021/03/18 03:39:35;;;;;;;63.83;22.65;;;;;;;;;;4990593;28;20129;-76
2021/03/18 03:42:03;;;;;;;73.63;25.30;;;;;;;;;;4990837;28;20078;-76
2021/03/18 03:44:30;;;;;;;87.28;26.13;;;;;;;;;;4990789;28;20105;-76
2021/03/18 03:46:57;;;;;;;69.93;22.92;;;;;;;;;;4990777;28;20054;-76
2021/03/18 03:49:24;;;;;;;79.72;23.45;;;;;;;;;;4990166;28;20054;-76
2021/03/18 03:51:57;;;;;;;63.08;23.25;;;;;;;;;;4988612;28;20069;-76
2021/03/18 03:54:24;;;;;;;77.00;22.65;;;;;;;;;;4989940;28;20042;-76
2021/03/18 03:57:06;;;;;;;74.35;23.15;;;;;;;;;;4990458;28;20096;-75
2021/03/18 03:59:35;;;;;;;89.00;24.67;;;;;;;;;;4990148;28;20050;-75
2021/03/18 04:02:04;;;;;;;69.07;23.90;;;;;;;;;;4991485;28;20052;-76
2021/03/18 04:04:33;;;;;;;97.10;26.10;;;;;;;;;;4991392;28;20045;-75
2021/03/18 04:07:10;;;;;;;93.20;25.83;;;;;;;;;;4990401;28;20137;-75
2021/03/18 04:09:37;;;;;;;81.43;25.85;;;;;;;;;;4989086;28;20058;-75
2021/03/18 04:12:06;;;;;;;78.78;24.65;;;;;;;;;;4990035;28;20042;-75
2021/03/18 04:14:34;;;;;;;73.97;24.92;;;;;;;;;;4990250;28;20478;-75
2021/03/18 04:17:09;;;;;;;89.78;28.10;;;;;;;;;;4990183;28;20124;-75
2021/03/18 04:19:37;;;;;;;89.10;26.58;;;;;;;;;;4989257;28;20051;-75
2021/03/18 04:22:05;;;;;;;82.20;24.23;;;;;;;;;;4989488;28;20109;-75
2021/03/18 04:24:33;;;;;;;87.60;27.02;;;;;;;;;;4989911;28;20449;-75
2021/03/18 04:27:00;;;;;;;79.85;26.20;;;;;;;;;;4990206;28;20157;-75
2021/03/18 04:29:28;;;;;;;78.53;25.52;;;;;;;;;;4989256;28;20159;-75
2021/03/18 04:31:56;;;;;;;77.43;28.65;;;;;;;;;;4989933;28;20717;-75
2021/03/18 04:34:43;;;;;;;87.45;27.10;;;;;;;;;;4987685;28;20047;-75
2021/03/18 04:37:11;;;;;;;90.40;27.42;;;;;;;;;;4988452;28;20433;-76
2021/03/18 04:39:38;;;;;;;89.35;26.98;;;;;;;;;;4988521;28;20089;-75
2021/03/18 04:42:06;;;;;;;88.28;27.45;;;;;;;;;;4987369;28;20153;-75
2021/03/18 04:44:33;;;;;;;79.28;26.13;;;;;;;;;;4989085;28;20133;-75
2021/03/18 04:47:01;;;;;;;83.60;25.90;;;;;;;;;;4988280;28;20089;-75
2021/03/18 04:49:28;;;;;;;78.63;28.55;;;;;;;;;;4989016;28;20148;-75
2021/03/18 04:51:55;;;;;;;86.20;28.58;;;;;;;;;;4988237;28;20141;-75
2021/03/18 04:54:23;;;;;;;81.90;28.15;;;;;;;;;;4988398;28;20557;-75
2021/03/18 04:56:51;;;;;;;84.10;28.52;;;;;;;;;;4989170;28;20058;-75
2021/03/18 04:59:18;;;;;;;96.00;28.77;;;;;;;;;;4989110;28;20561;-76
2021/03/18 05:01:52;;;;;;;85.72;28.05;;;;;;;;;;4989465;28;20046;-75
2021/03/18 05:04:20;;;;;;;86.03;26.73;;;;;;;;;;4989471;28;20113;-75
2021/03/18 05:06:48;;;;;;;81.25;26.38;;;;;;;;;;4989189;28;20133;-75
2021/03/18 05:09:15;;;;;;;81.85;27.75;;;;;;;;;;4988898;28;20797;-75
2021/03/18 05:11:42;;;;;;;93.93;28.27;;;;;;;;;;4988172;28;20046;-75
2021/03/18 05:14:10;;;;;;;90.80;29.45;;;;;;;;;;4988177;28;20563;-75
2021/03/18 05:16:37;;;;;;;88.85;28.45;;;;;;;;;;4987756;28;20742;-75
2021/03/18 05:19:07;;;;;;;87.00;29.13;;;;;;;;;;4986557;28;20458;-75
2021/03/18 05:21:34;;;;;;;89.90;29.52;;;;;;;;;;4986848;28;20132;-75
2021/03/18 05:24:02;;;;;;;92.18;28.13;;;;;;;;;;4987915;28;20074;-75
2021/03/18 05:26:29;;;;;;;87.85;29.52;;;;;;;;;;4989211;28;20077;-75
2021/03/18 05:28:55;;;;;;;101.40;29.75;;;;;;;;;;4988330;28;20137;-75
2021/03/18 05:31:23;;;;;;;97.68;30.45;;;;;;;;;;4987686;28;20517;-75
2021/03/18 05:33:51;;;;;;;86.32;29.52;;;;;;;;;;4987713;28;20129;-75
2021/03/18 05:36:18;;;;;;;78.05;28.60;;;;;;;;;;4988296;28;20637;-75
2021/03/18 05:38:45;;;;;;;96.85;28.33;;;;;;;;;;4986445;28;20101;-75
2021/03/18 05:41:12;;;;;;;89.53;27.80;;;;;;;;;;4987393;28;20519;-75
2021/03/18 05:43:39;;;;;;;92.03;30.20;;;;;;;;;;4987824;28;20430;-75
2021/03/18 05:46:05;;;;;;;91.72;30.48;;;;;;;;;;4987715;28;20558;-75
2021/03/18 05:48:32;;;;;;;97.13;32.40;;;;;;;;;;4988192;28;20046;-76
2021/03/18 05:50:59;;;;;;;102.93;37.75;;;;;;;;;;4987964;28;20496;-77
2021/03/18 05:53:27;;;;;;;92.45;32.50;;;;;;;;;;4985955;28;20074;-76
2021/03/18 05:55:54;;;;;;;98.93;33.20;;;;;;;;;;4986391;28;20137;-76
2021/03/18 05:58:25;;;;;;;103.88;33.90;;;;;;;;;;4988178;28;20090;-77
2021/03/18 06:00:52;;;;;;;98.07;35.42;;;;;;;;;;4988125;28;20058;-77
2021/03/18 06:03:19;;;;;;;86.95;28.77;;;;;;;;;;4987578;28;20054;-76
2021/03/18 06:06:00;;;;;;;94.32;29.10;;;;;;;;;;4985736;28;20053;-75
2021/03/18 06:08:27;;;;;;;91.32;29.98;;;;;;;;;;4985219;28;20537;-75
2021/03/18 06:10:54;;;;;;;81.32;28.50;;;;;;;;;;4999386;28;20053;-76
2021/03/18 06:13:21;;;;;;;82.30;29.33;;;;;;;;;;4999256;28;20461;-75
2021/03/18 06:15:48;;;;;;;86.70;30.13;;;;;;;;;;4999029;28;20141;-77
2021/03/18 06:18:15;;;;;;;88.32;30.27;;;;;;;;;;5006748;28;20677;-77
2021/03/18 06:20:48;;;;;;;86.13;28.85;;;;;;;;;;5006625;28;20054;-75
2021/03/18 06:23:15;;;;;;;85.10;28.95;;;;;;;;;;5007941;28;20081;-75
2021/03/18 06:25:41;;;;;;;92.13;30.30;;;;;;;;;;5006661;28;20471;-77
2021/03/18 06:28:13;;;;;;;82.15;30.13;;;;;;;;;;4994777;28;20216;-78
2021/03/18 06:30:40;;;;;;;78.10;28.90;;;;;;;;;;4988203;28;20130;-76
2021/03/18 06:33:20;;;;;;;88.70;31.10;;;;;;;;;;4999388;28;20104;-78
2021/03/18 06:35:47;;;;;;;80.82;28.83;;;;;;;;;;5007902;28;20076;-81
2021/03/18 06:38:14;;;;;;;72.13;29.20;;;;;;;;;;4995617;28;20229;-76
2021/03/18 06:40:42;;;;;;;76.00;28.75;;;;;;;;;;4988760;28;20140;-76
2021/03/18 06:43:10;;;;;;;69.80;27.15;;;;;;;;;;4985229;28;20129;-77
2021/03/18 06:45:38;;;;;;;71.13;27.23;;;;;;;;;;4983383;28;20133;-77
2021/03/18 06:48:06;;;;;;;70.95;25.95;;;;;;;;;;4984085;28;20046;-77
2021/03/18 06:50:38;;;;;;;69.28;27.05;;;;;;;;;;4985607;28;20081;-77
2021/03/18 06:53:17;;;;;;;60.97;25.52;;;;;;;;;;4986678;28;20081;-77
2021/03/18 06:55:43;;;;;;;52.67;23.05;;;;;;;;;;4985845;28;20089;-77
2021/03/18 06:58:14;;;;;;;53.60;22.85;;;;;;;;;;4984335;28;20112;-77
2021/03/18 07:00:42;;;;;;;48.65;21.15;;;;;;;;;;4985748;28;20631;-77
2021/03/18 07:03:10;;;;;;;46.60;20.33;;;;;;;;;;4987379;28;20065;-77
2021/03/18 07:05:38;;;;;;;42.45;21.05;;;;;;;;;;4989180;28;20050;-77
2021/03/18 07:08:06;;;;;;;42.60;18.08;;;;;;;;;;4991086;28;20132;-77
2021/03/18 07:10:33;;;;;;;38.22;18.02;;;;;;;;;;4989767;28;20113;-77
2021/03/18 07:13:17;;;;;;;40.60;13.90;;;;;;;;;;4991458;28;20049;-77
2021/03/18 07:15:44;;;;;;;23.83;9.70;;;;;;;;;;4991138;28;20157;-77
2021/03/18 07:18:11;;;;;;;24.65;9.25;;;;;;;;;;4991386;28;20080;-77
2021/03/18 07:20:38;;;;;;;21.75;8.55;;;;;;;;;;4990964;28;20762;-77
2021/03/18 07:23:16;;;;;;;21.15;7.68;;;;;;;;;;4991071;28;20487;-77
2021/03/18 07:25:45;;;;;;;19.55;6.38;;;;;;;;;;4991289;28;20644;-77
2021/03/18 07:28:14;;;;;;;14.30;6.25;;;;;;;;;;4990018;28;20054;-77
2021/03/18 07:30:42;;;;;;;21.45;6.45;;;;;;;;;;4990396;28;20475;-75
2021/03/18 07:33:09;;;;;;;12.20;5.93;;;;;;;;;;4991220;28;20050;-75
2021/03/18 07:35:36;;;;;;;18.30;6.55;;;;;;;;;;4989541;28;20052;-77
2021/03/18 07:38:03;;;;;;;14.20;6.38;;;;;;;;;;4991029;28;20248;-77
2021/03/18 07:40:31;;;;;;;10.43;5.53;;;;;;;;;;4989439;28;20142;-77
2021/03/18 07:42:58;;;;;;;9.88;6.03;;;;;;;;;;4989614;28;20133;-78
2021/03/18 07:45:25;;;;;;;10.63;4.35;;;;;;;;;;4990897;28;20100;-77
2021/03/18 07:47:53;;;;;;;7.68;4.25;;;;;;;;;;4989713;28;20050;-77
2021/03/18 07:50:25;;;;;;;14.10;4.70;;;;;;;;;;4990460;28;20531;-77
2021/03/18 07:52:52;;;;;;;10.88;3.30;;;;;;;;;;4989266;28;20077;-77
2021/03/18 07:55:20;;;;;;;7.63;2.47;;;;;;;;;;4990809;28;20483;-77
2021/03/18 07:57:50;;;;;;;12.30;3.55;;;;;;;;;;4990811;28;20078;-77
2021/03/18 08:00:21;;;;;;;9.10;3.50;;;;;;;;;;4989491;28;20671;-77
2021/03/18 08:02:49;;;;;;;11.23;3.22;;;;;;;;;;4987906;28;20054;-77
2021/03/18 08:05:36;;;;;;;7.00;2.65;;;;;;;;;;4987762;28;20065;-77
2021/03/18 08:08:03;;;;;;;19.30;4.70;;;;;;;;;;4990417;28;20074;-77
2021/03/18 08:10:41;;;;;;;9.05;2.40;;;;;;;;;;4988949;28;20046;-77
2021/03/18 08:13:08;;;;;;;8.68;2.30;;;;;;;;;;4989260;28;20112;-77
2021/03/18 08:15:41;;;;;;;19.73;3.50;;;;;;;;;;4989617;28;20073;-77
2021/03/18 08:18:14;;;;;;;11.73;2.58;;;;;;;;;;4989835;28;20060;-77
2021/03/18 08:20:58;;;;;;;15.10;3.50;;;;;;;;;;4990153;28;20050;-77
2021/03/18 08:23:25;;;;;;;10.02;3.17;;;;;;;;;;4988743;28;20533;-77
2021/03/18 08:26:05;;;;;;;11.07;2.90;;;;;;;;;;4989571;28;20134;-76
2021/03/18 08:28:44;;;;;;;10.32;2.85;;;;;;;;;;4989388;28;20054;-74
2021/03/18 08:31:12;;;;;;;14.13;2.92;;;;;;;;;;4988302;28;20438;-75
2021/03/18 08:33:50;;;;;;;14.63;3.05;;;;;;;;;;4988482;28;20060;-75
2021/03/18 08:36:32;;;;;;;11.00;3.08;;;;;;;;;;4991730;28;20058;-76
2021/03/18 08:39:07;;;;;;;11.90;2.30;;;;;;;;;;4996009;28;20085;-76
2021/03/18 08:41:41;;;;;;;8.77;2.38;;;;;;;;;;4988344;28;20550;-75
2021/03/18 08:44:25;;;;;;;8.32;1.70;;;;;;;;;;4989577;28;20094;-76
2021/03/18 08:46:59;;;;;;;74.55;10.52;;;;;;;;;;4989227;28;20555;-77
2021/03/18 08:49:31;;;;;;;7.93;2.42;;;;;;;;;;4987687;28;20050;-76
2021/03/18 08:51:59;;;;;;;20.77;3.78;;;;;;;;;;4989454;28;20084;-76
2021/03/18 08:54:38;;;;;;;16.23;3.25;;;;;;;;;;4987993;28;20427;-77
2021/03/18 08:57:12;;;;;;;22.48;2.45;;;;;;;;;;4989378;28;20058;-78
2021/03/18 08:59:40;;;;;;;11.93;2.88;;;;;;;;;;4987480;28;20149;-79
2021/03/18 09:02:06;;;;;;;16.38;3.08;;;;;;;;;;4988315;28;20046;-78
2021/03/18 09:04:41;;;;;;;8.38;3.08;;;;;;;;;;4987824;28;20050;-80
2021/03/18 09:07:08;;;;;;;10.43;3.42;;;;;;;;;;4987131;28;20121;-80
2021/03/18 09:09:36;;;;;;;7.82;2.50;;;;;;;;;;4986957;28;20101;-80
2021/03/18 09:12:03;;;;;;;23.83;3.90;;;;;;;;;;4987060;28;20112;-80
2021/03/18 09:14:30;;;;;;;8.90;2.30;;;;;;;;;;4988835;28;20163;-80
2021/03/18 09:17:06;;;;;;;15.13;2.67;;;;;;;;;;4987838;28;20143;-80
2021/03/18 09:19:38;;;;;;;8.45;1.70;;;;;;;;;;4988041;28;20137;-80
2021/03/18 09:22:05;;;;;;;11.07;2.60;;;;;;;;;;4988581;28;20074;-79
2021/03/18 09:24:36;;;;;;;5.68;1.70;;;;;;;;;;4986564;28;20081;-80
2021/03/18 09:27:05;;;;;;;18.95;2.90;;;;;;;;;;4987626;28;20112;-80
2021/03/18 09:29:32;;;;;;;10.20;2.10;;;;;;;;;;4986863;28;20097;-80
2021/03/18 09:32:03;;;;;;;12.10;2.92;;;;;;;;;;4986115;28;20086;-80
2021/03/18 09:34:31;;;;;;;3.72;1.48;;;;;;;;;;4987399;28;20046;-81
2021/03/18 09:36:58;;;;;;;6.03;1.80;;;;;;;;;;4988310;28;20149;-81
2021/03/18 09:39:24;;;;;;;7.93;1.70;;;;;;;;;;4987512;28;20466;-80
2021/03/18 09:41:52;;;;;;;14.25;2.50;;;;;;;;;;4986256;28;20081;-80
2021/03/18 09:44:22;;;;;;;4.80;1.40;;;;;;;;;;4987078;28;20398;-81
2021/03/18 09:46:50;;;;;;;27.42;3.15;;;;;;;;;;4987594;28;20112;-81
2021/03/18 09:49:25;;;;;;;2.50;1.23;;;;;;;;;;4986335;28;20061;-81
2021/03/18 09:51:53;;;;;;;13.60;1.93;;;;;;;;;;4987446;28;20038;-82
2021/03/18 09:54:22;;;;;;;3.78;1.30;;;;;;;;;;4986431;28;20355;-82
2021/03/18 09:56:51;;;;;;;7.60;1.50;;;;;;;;;;4986149;28;20050;-81
2021/03/18 09:59:20;;;;;;;7.10;1.77;;;;;;;;;;4985260;28;20058;-81
2021/03/18 10:01:48;;;;;;;4.57;1.70;;;;;;;;;;4984719;28;20572;-81
2021/03/18 10:04:17;;;;;;;3.72;1.73;;;;;;;;;;4984912;28;20053;-81
2021/03/18 10:06:49;;;;;;;8.48;1.92;;;;;;;;;;4985228;28;20046;-82
2021/03/18 10:09:27;;;;;;;3.53;1.30;;;;;;;;;;4984403;28;20058;-82
2021/03/18 10:11:54;;;;;;;4.35;1.48;;;;;;;;;;4986926;28;20057;-79
2021/03/18 10:14:22;;;;;;;2.03;1.10;;;;;;;;;;4985390;28;20054;-80
2021/03/18 10:17:14;;;;;;;3.35;1.30;;;;;;;;;;4986254;28;20940;-80
2021/03/18 10:19:46;;;;;;;3.95;1.73;;;;;;;;;;4987063;28;20081;-80
2021/03/18 10:22:12;;;;;;;4.07;1.45;;;;;;;;;;4986190;28;20526;-80
2021/03/18 10:24:40;;;;;;;10.80;2.75;;;;;;;;;;4986625;28;20081;-80
2021/03/18 10:27:16;;;;;;;3.67;1.50;;;;;;;;;;4987532;28;20124;-80
2021/03/18 10:29:43;;;;;;;3.88;1.20;;;;;;;;;;4987451;28;20051;-80
2021/03/18 10:32:14;;;;;;;14.98;2.63;;;;;;;;;;4987622;28;20523;-80
2021/03/18 10:34:52;;;;;;;3.10;1.00;;;;;;;;;;4986083;28;20046;-80
2021/03/18 10:37:33;;;;;;;11.85;1.92;;;;;;;;;;4986529;28;20442;-80
2021/03/18 10:40:08;;;;;;;4.53;1.23;;;;;;;;;;4988712;28;20078;-81
2021/03/18 10:42:34;;;;;;;12.20;1.55;;;;;;;;;;4990536;28;20078;-80
2021/03/18 10:45:13;;;;;;;5.07;1.17;;;;;;;;;;4989767;28;20104;-80
2021/03/18 10:47:41;;;;;;;1.55;0.75;;;;;;;;;;4990284;28;20447;-80
2021/03/18 10:50:12;;;;;;;6.63;1.10;;;;;;;;;;4989962;28;20055;-80
2021/03/18 10:52:39;;;;;;;3.35;1.15;;;;;;;;;;4990193;28;20141;-81
2021/03/18 10:55:09;;;;;;;2.00;0.77;;;;;;;;;;4989282;28;20372;-81
2021/03/18 10:57:36;;;;;;;2.83;1.00;;;;;;;;;;4989312;28;20050;-80
2021/03/18 11:00:07;;;;;;;8.60;1.40;;;;;;;;;;4990187;28;20082;-80
2021/03/18 11:02:39;;;;;;;2.25;0.73;;;;;;;;;;4990963;28;20168;-80
2021/03/18 11:05:07;;;;;;;1.63;0.82;;;;;;;;;;4991863;28;20656;-80
2021/03/18 11:07:33;;;;;;;1.73;0.75;;;;;;;;;;4990849;28;20145;-80
2021/03/18 11:10:11;;;;;;;6.43;1.33;;;;;;;;;;4989888;28;20587;-81
2021/03/18 11:12:39;;;;;;;5.60;1.20;;;;;;;;;;4988898;28;20451;-80
2021/03/18 11:15:07;;;;;;;2.72;1.00;;;;;;;;;;4990007;28;20120;-80
2021/03/18 11:17:33;;;;;;;2.17;0.93;;;;;;;;;;4989882;28;20109;-81
2021/03/18 11:20:12;;;;;;;3.22;0.98;;;;;;;;;;4988510;28;20054;-80
2021/03/18 11:22:38;;;;;;;4.93;0.90;;;;;;;;;;4989546;28;20152;-81
2021/03/18 11:25:08;;;;;;;5.32;0.90;;;;;;;;;;4990989;28;20134;-80
2021/03/18 11:27:35;;;;;;;2.63;1.00;;;;;;;;;;4989095;28;20801;-81
2021/03/18 11:30:04;;;;;;;2.72;1.25;;;;;;;;;;4990946;28;20062;-81
2021/03/18 11:32:31;;;;;;;8.63;0.90;;;;;;;;;;4989309;28;20054;-81
2021/03/18 11:34:59;;;;;;;3.22;0.80;;;;;;;;;;4986418;28;20573;-81
2021/03/18 11:37:26;;;;;;;4.07;0.68;;;;;;;;;;4988311;28;20439;-80
2021/03/18 11:39:53;;;;;;;1.83;0.85;;;;;;;;;;4988711;28;20503;-81
2021/03/18 11:42:20;;;;;;;2.08;0.50;;;;;;;;;;4988993;28;20078;-81
2021/03/18 11:44:47;;;;;;;5.15;0.93;;;;;;;;;;4990523;28;20057;-81
2021/03/18 11:47:15;;;;;;;1.17;0.70;;;;;;;;;;4989910;28;20080;-81
2021/03/18 11:49:43;;;;;;;1.70;0.73;;;;;;;;;;4990108;28;20046;-81
2021/03/18 11:52:11;;;;;;;5.80;0.90;;;;;;;;;;4989027;28;20054;-83
2021/03/18 11:54:38;;;;;;;3.95;1.10;;;;;;;;;;4990933;28;20085;-81
2021/03/18 11:57:06;;;;;;;4.10;0.90;;;;;;;;;;4989852;28;20387;-81
2021/03/18 11:59:33;;;;;;;15.88;1.58;;;;;;;;;;4990188;28;20054;-80
2021/03/18 12:01:59;;;;;;;4.68;1.10;;;;;;;;;;4990728;28;20101;-82
2021/03/18 12:04:26;;;;;;;3.45;0.82;;;;;;;;;;4991143;28;20641;-82
2021/03/18 12:06:53;;;;;;;8.38;1.10;;;;;;;;;;4989938;28;20058;-82
2021/03/18 12:09:20;;;;;;;2.17;0.43;;;;;;;;;;4990633;28;20082;-82
2021/03/18 12:11:47;;;;;;;3.22;0.73;;;;;;;;;;4990323;28;20641;-82
2021/03/18 12:14:14;;;;;;;3.42;1.30;;;;;;;;;;4989205;28;20053;-81
2021/03/18 12:16:42;;;;;;;4.10;0.80;;;;;;;;;;4988600;28;20109;-81
2021/03/18 12:19:09;;;;;;;2.55;0.55;;;;;;;;;;4989214;28;20062;-81
2021/03/18 12:21:37;;;;;;;2.92;1.05;;;;;;;;;;4988342;28;20528;-81
2021/03/18 12:24:03;;;;;;;1.30;0.70;;;;;;;;;;4988085;28;20092;-81
2021/03/18 12:26:30;;;;;;;2.53;0.52;;;;;;;;;;4989010;28;20133;-81
2021/03/18 12:28:57;;;;;;;4.22;0.98;;;;;;;;;;4988613;28;20058;-82
2021/03/18 12:31:24;;;;;;;3.78;0.68;;;;;;;;;;4989870;28;20058;-81
2021/03/18 12:33:51;;;;;;;0.70;0.50;;;;;;;;;;4989399;28;20057;-82
2021/03/18 12:36:18;;;;;;;5.72;0.73;;;;;;;;;;4988682;28;20685;-81
2021/03/18 12:38:45;;;;;;;5.22;0.70;;;;;;;;;;4989060;28;20082;-81
2021/03/18 12:41:28;;;;;;;5.00;0.60;;;;;;;;;;4989427;28;20491;-81
2021/03/18 12:43:55;;;;;;;5.70;0.50;;;;;;;;;;4989667;28;20101;-82
2021/03/18 12:46:23;;;;;;;3.80;0.70;;;;;;;;;;4988576;28;20050;-82
2021/03/18 12:48:49;;;;;;;3.50;0.70;;;;;;;;;;4988226;28;20050;-83
2021/03/18 12:51:16;;;;;;;1.90;0.50;;;;;;;;;;4985626;28;20626;-82
2021/03/18 12:53:43;;;;;;;3.13;0.32;;;;;;;;;;4987760;28;20093;-80
2021/03/18 12:56:10;;;;;;;2.40;0.57;;;;;;;;;;4985685;28;20241;-82
2021/03/18 12:58:36;;;;;;;4.20;0.75;;;;;;;;;;4987284;28;20080;-82
2021/03/18 13:01:03;;;;;;;2.15;0.40;;;;;;;;;;4986319;28;20133;-82
2021/03/18 13:03:31;;;;;;;3.53;0.75;;;;;;;;;;4988483;28;20042;-81
2021/03/18 13:05:58;;;;;;;7.28;0.65;;;;;;;;;;4988197;28;20058;-82
2021/03/18 13:08:25;;;;;;;2.88;0.90;;;;;;;;;;4989088;28;20081;-82
2021/03/18 13:10:52;;;;;;;8.30;1.25;;;;;;;;;;4989080;28;20057;-82
2021/03/18 13:13:18;;;;;;;8.68;1.20;;;;;;;;;;4987453;28;20507;-82
2021/03/18 13:15:45;;;;;;;3.72;0.80;;;;;;;;;;4988891;28;20141;-82
2021/03/18 13:18:12;;;;;;;3.08;0.82;;;;;;;;;;4987294;28;20187;-82
2021/03/18 13:20:39;;;;;;;4.57;0.88;;;;;;;;;;4985062;28;20054;-82
2021/03/18 13:23:05;;;;;;;5.93;0.60;;;;;;;;;;4986545;28;20124;-82
2021/03/18 13:25:33;;;;;;;1.98;0.70;;;;;;;;;;4987592;28;20593;-82
2021/03/18 13:28:00;;;;;;;10.52;1.13;;;;;;;;;;4986068;28;20388;-82
2021/03/18 13:30:29;;;;;;;10.02;1.67;;;;;;;;;;4987045;28;20081;-82
2021/03/18 13:32:56;;;;;;;1.42;0.65;;;;;;;;;;4987023;28;20133;-82
2021/03/18 13:35:36;;;;;;;6.22;1.00;;;;;;;;;;4987812;28;20048;-79
2021/03/18 13:38:03;;;;;;;7.70;1.08;;;;;;;;;;4985984;28;20408;-80
2021/03/18 13:40:37;;;;;;;2.05;1.42;;;;;;;;;;4987377;28;20046;-80
2021/03/18 13:43:04;;;;;;;4.70;0.90;;;;;;;;;;4986904;28;20403;-78
2021/03/18 13:45:31;;;;;;;8.98;1.80;;;;;;;;;;4985693;28;20078;-79
2021/03/18 13:47:59;;;;;;;4.80;0.90;;;;;;;;;;4987086;28;20082;-78
2021/03/18 13:50:29;;;;;;;3.20;1.15;;;;;;;;;;4985226;28;20419;-78
2021/03/18 13:52:57;;;;;;;7.60;1.50;;;;;;;;;;4987481;28;20053;-79
2021/03/18 13:55:24;;;;;;;1.55;0.68;;;;;;;;;;4986011;28;20068;-79
2021/03/18 13:57:51;;;;;;;2.67;1.00;;;;;;;;;;4985467;28;20384;-79
2021/03/18 14:00:18;;;;;;;1.52;0.70;;;;;;;;;;4986554;28;20077;-79
2021/03/18 14:02:44;;;;;;;5.15;1.33;;;;;;;;;;4986249;28;20053;-79
2021/03/18 14:05:12;;;;;;;3.05;0.73;;;;;;;;;;4986557;28;20054;-79
2021/03/18 14:07:40;;;;;;;1.25;0.70;;;;;;;;;;4985380;28;20594;-79
2021/03/18 14:10:09;;;;;;;2.08;0.60;;;;;;;;;;4986263;28;20152;-78
2021/03/18 14:12:37;;;;;;;4.22;0.88;;;;;;;;;;4987281;28;20136;-80
2021/03/18 14:15:06;;;;;;;2.10;0.70;;;;;;;;;;4984840;28;20140;-80
2021/03/18 14:17:32;;;;;;;1.60;0.60;;;;;;;;;;4985897;28;20479;-79
2021/03/18 14:20:00;;;;;;;5.90;0.52;;;;;;;;;;4985858;28;20133;-79
2021/03/18 14:22:29;;;;;;;2.42;0.88;;;;;;;;;;4986618;28;20054;-79
2021/03/18 14:24:55;;;;;;;1.48;0.73;;;;;;;;;;4986198;28;20062;-79
2021/03/18 14:27:23;;;;;;;4.05;0.95;;;;;;;;;;4986466;28;20140;-78
2021/03/18 14:29:50;;;;;;;2.38;1.10;;;;;;;;;;4985081;28;20086;-79
2021/03/18 14:32:16;;;;;;;6.97;3.35;;;;;;;;;;4986311;28;20133;-79
2021/03/18 14:34:43;;;;;;;12.65;5.13;;;;;;;;;;4985262;28;20050;-79
2021/03/18 14:37:10;;;;;;;9.68;2.00;;;;;;;;;;4985324;28;20590;-79
2021/03/18 14:39:38;;;;;;;3.33;1.38;;;;;;;;;;4985952;28;20046;-79